createdAt,value
2022-07-27T00:00:56.164Z,90.60
2022-07-27T00:03:23.621Z,90.70
2022-07-27T00:05:51.455Z,90.70
2022-07-27T00:08:24.000Z,90.80
2022-07-27T00:10:51.905Z,90.90
2022-07-27T00:13:19.432Z,90.90
2022-07-27T00:15:46.747Z,91.20
2022-07-27T00:18:14.153Z,91.10
2022-07-27T00:20:41.713Z,91.00
2022-07-27T00:23:10.015Z,91.40
2022-07-27T00:25:37.441Z,91.40
2022-07-27T00:28:04.953Z,91.40
2022-07-27T00:30:34.721Z,91.50
2022-07-27T00:33:02.228Z,91.70
2022-07-27T00:35:29.716Z,91.60
2022-07-27T00:37:57.096Z,91.60
2022-07-27T00:40:25.789Z,91.70
2022-07-27T00:42:53.684Z,92.10
2022-07-27T00:45:21.038Z,91.90
2022-07-27T00:47:53.104Z,91.90
2022-07-27T00:50:22.240Z,92.10
2022-07-27T00:52:49.659Z,92.10
2022-07-27T00:55:17.015Z,92.00
2022-07-27T00:57:58.029Z,92.00
2022-07-27T01:00:27.637Z,92.10
2022-07-27T01:02:55.223Z,92.10
2022-07-27T01:05:36.342Z,92.10
2022-07-27T01:08:06.677Z,92.10
2022-07-27T01:10:34.227Z,92.20
2022-07-27T01:13:02.159Z,92.10
2022-07-27T01:15:29.687Z,92.20
2022-07-27T01:17:57.218Z,92.30
2022-07-27T01:20:24.572Z,92.20
2022-07-27T01:22:51.931Z,92.10
2022-07-27T01:25:19.342Z,92.10
2022-07-27T01:27:46.701Z,92.30
2022-07-27T01:30:30.524Z,92.20
2022-07-27T01:33:04.975Z,92.00
2022-07-27T01:35:32.952Z,92.10
2022-07-27T01:38:00.425Z,92.10
2022-07-27T01:40:27.908Z,92.10
2022-07-27T01:42:55.211Z,92.10
2022-07-27T01:45:22.632Z,92.20
2022-07-27T01:47:49.976Z,92.00
2022-07-27T01:50:17.285Z,92.20
2022-07-27T01:52:44.642Z,92.10
2022-07-27T01:55:12.038Z,92.00
2022-07-27T01:57:39.436Z,92.10
2022-07-27T02:00:08.477Z,92.10
2022-07-27T02:02:39.959Z,92.10
2022-07-27T02:05:08.258Z,92.10
2022-07-27T02:07:35.746Z,92.00
2022-07-27T02:10:03.330Z,92.00
2022-07-27T02:12:37.440Z,92.00
2022-07-27T02:15:07.432Z,92.00
2022-07-27T02:17:35.615Z,92.00
2022-07-27T02:20:03.974Z,92.00
2022-07-27T02:22:31.493Z,91.90
2022-07-27T02:24:58.818Z,91.90
2022-07-27T02:27:26.466Z,91.90
2022-07-27T02:29:54.015Z,91.80
2022-07-27T02:32:21.371Z,91.70
2022-07-27T02:34:48.860Z,91.60
2022-07-27T02:37:16.243Z,91.50
2022-07-27T02:39:43.625Z,91.30
2022-07-27T02:42:11.159Z,91.20
2022-07-27T02:44:38.560Z,91.30
2022-07-27T02:47:06.010Z,91.30
2022-07-27T02:49:33.348Z,91.20
2022-07-27T02:52:00.743Z,91.20
2022-07-27T02:54:29.148Z,91.00
2022-07-27T02:56:56.650Z,90.90
2022-07-27T02:59:24.009Z,91.00
2022-07-27T03:01:51.565Z,90.90
2022-07-27T03:04:19.355Z,90.90
2022-07-27T03:06:46.924Z,90.90
2022-07-27T03:09:14.740Z,90.80
2022-07-27T03:11:42.457Z,90.80
2022-07-27T03:14:09.812Z,90.80
2022-07-27T03:16:37.253Z,90.80
2022-07-27T03:19:05.498Z,90.90
2022-07-27T03:21:32.974Z,90.80
2022-07-27T03:24:00.356Z,90.80
2022-07-27T03:26:30.506Z,90.70
2022-07-27T03:28:57.883Z,90.50
2022-07-27T03:31:25.501Z,90.50
2022-07-27T03:33:53.208Z,90.40
2022-07-27T03:36:20.603Z,90.50
2022-07-27T03:38:48.051Z,90.50
2022-07-27T03:41:15.575Z,90.40
2022-07-27T03:43:43.229Z,90.50
2022-07-27T03:46:12.623Z,90.50
2022-07-27T03:48:40.374Z,90.50
2022-07-27T03:51:07.790Z,90.50
2022-07-27T03:53:35.167Z,90.50
2022-07-27T03:56:02.499Z,90.50
2022-07-27T03:58:29.992Z,90.60
2022-07-27T04:00:57.565Z,90.50
2022-07-27T04:03:25.002Z,90.60
2022-07-27T04:05:52.318Z,90.60
2022-07-27T04:08:21.269Z,90.50
2022-07-27T04:10:48.640Z,90.60
2022-07-27T04:13:16.628Z,90.60
2022-07-27T04:15:45.229Z,90.60
2022-07-27T04:18:12.702Z,90.70
2022-07-27T04:20:40.068Z,90.70
2022-07-27T04:23:07.428Z,90.70
2022-07-27T04:25:34.777Z,90.70
2022-07-27T04:28:02.230Z,90.70
2022-07-27T04:30:29.583Z,90.80
2022-07-27T04:32:57.105Z,90.90
2022-07-27T04:35:26.747Z,90.90
2022-07-27T04:37:59.035Z,90.90
2022-07-27T04:40:30.002Z,90.90
2022-07-27T04:42:57.354Z,91.00
2022-07-27T04:45:24.748Z,91.00
2022-07-27T04:47:52.196Z,91.00
2022-07-27T04:50:19.670Z,91.00
2022-07-27T04:52:47.380Z,91.10
2022-07-27T04:55:14.723Z,91.00
2022-07-27T04:57:42.098Z,91.00
2022-07-27T05:00:10.684Z,91.00
2022-07-27T05:02:41.123Z,91.00
2022-07-27T05:05:08.933Z,90.90
2022-07-27T05:07:36.694Z,90.80
2022-07-27T05:10:04.268Z,90.90
2022-07-27T05:12:31.676Z,90.90
2022-07-27T05:14:59.055Z,90.90
2022-07-27T05:17:26.443Z,90.90
2022-07-27T05:19:54.031Z,90.90
2022-07-27T05:22:21.868Z,90.70
2022-07-27T05:24:49.262Z,90.70
2022-07-27T05:27:16.538Z,90.60
2022-07-27T05:29:44.028Z,90.50
2022-07-27T05:32:11.617Z,90.50
2022-07-27T05:34:39.093Z,90.70
2022-07-27T05:37:06.398Z,90.60
2022-07-27T05:39:33.797Z,90.80
2022-07-27T05:42:01.707Z,90.80
2022-07-27T05:44:29.094Z,90.90
2022-07-27T05:46:56.814Z,90.80
2022-07-27T05:49:24.655Z,91.00
2022-07-27T05:51:52.104Z,91.10
2022-07-27T05:54:19.604Z,91.00
2022-07-27T05:56:47.141Z,90.90
2022-07-27T05:59:14.808Z,90.80
2022-07-27T06:01:42.481Z,90.70
2022-07-27T06:04:09.779Z,90.50
2022-07-27T06:07:01.033Z,90.40
2022-07-27T06:09:28.404Z,90.30
2022-07-27T06:11:58.729Z,90.30
2022-07-27T06:14:26.133Z,90.20
2022-07-27T06:16:53.611Z,90.20
2022-07-27T06:19:21.085Z,90.10
2022-07-27T06:21:53.405Z,90.10
2022-07-27T06:24:21.224Z,90.20
2022-07-27T06:26:48.591Z,90.00
2022-07-27T06:29:16.190Z,90.10
2022-07-27T06:31:44.716Z,90.10
2022-07-27T06:34:12.275Z,90.00
2022-07-27T06:36:43.620Z,90.00
2022-07-27T06:39:11.974Z,90.10
2022-07-27T06:41:39.591Z,90.00
2022-07-27T06:44:13.537Z,90.10
2022-07-27T06:46:41.002Z,90.30
2022-07-27T06:49:08.617Z,90.00
2022-07-27T06:51:36.210Z,90.00
2022-07-27T06:54:05.132Z,90.00
2022-07-27T06:56:32.951Z,89.70
2022-07-27T06:59:00.446Z,89.60
2022-07-27T07:01:27.834Z,89.70
2022-07-27T07:03:56.298Z,89.80
2022-07-27T07:06:23.847Z,89.50
2022-07-27T07:08:51.208Z,89.20
2022-07-27T07:11:18.583Z,89.30
2022-07-27T07:13:45.957Z,88.70
2022-07-27T07:16:13.960Z,88.80
2022-07-27T07:18:41.367Z,88.70
2022-07-27T07:21:08.879Z,88.90
2022-07-27T07:23:36.341Z,88.40
2022-07-27T07:26:03.698Z,88.10
2022-07-27T07:28:31.208Z,87.90
2022-07-27T07:30:58.832Z,87.50
2022-07-27T07:33:27.310Z,87.00
2022-07-27T07:36:13.192Z,87.00
2022-07-27T07:38:42.363Z,86.70
2022-07-27T07:41:10.209Z,86.70
2022-07-27T07:43:38.782Z,86.10
2022-07-27T07:46:06.403Z,86.60
2022-07-27T07:48:34.692Z,86.70
2022-07-27T07:51:03.025Z,86.60
2022-07-27T07:53:30.521Z,86.70
2022-07-27T07:55:58.533Z,87.10
2022-07-27T07:58:26.627Z,87.10
2022-07-27T08:00:55.140Z,87.40
2022-07-27T08:03:22.911Z,87.50
2022-07-27T08:05:50.976Z,87.60
2022-07-27T08:08:18.379Z,87.90
2022-07-27T08:10:45.782Z,88.20
2022-07-27T08:13:21.604Z,89.00
2022-07-27T08:15:51.532Z,89.00
2022-07-27T08:18:19.221Z,89.10
2022-07-27T08:20:46.591Z,89.40
2022-07-27T08:23:14.164Z,89.70
2022-07-27T08:25:42.419Z,89.90
2022-07-27T08:28:10.240Z,89.90
2022-07-27T08:30:37.821Z,89.60
2022-07-27T08:33:07.087Z,89.20
2022-07-27T08:35:34.789Z,89.40
2022-07-27T08:38:02.826Z,89.00
2022-07-27T08:40:46.788Z,88.80
2022-07-27T08:43:20.193Z,89.00
2022-07-27T08:45:54.840Z,88.90
2022-07-27T08:48:24.071Z,89.30
2022-07-27T08:50:51.600Z,88.30
2022-07-27T08:53:19.192Z,86.90
2022-07-27T08:55:47.373Z,86.80
2022-07-27T08:58:15.582Z,86.60
2022-07-27T09:00:47.055Z,86.40
2022-07-27T09:03:19.475Z,85.50
2022-07-27T09:05:49.124Z,85.20
2022-07-27T09:08:17.780Z,85.30
2022-07-27T09:10:45.125Z,84.50
2022-07-27T09:13:23.344Z,83.20
2022-07-27T09:16:20.117Z,83.90
2022-07-27T09:18:48.339Z,83.10
2022-07-27T09:21:20.880Z,82.50
2022-07-27T09:23:49.913Z,81.90
2022-07-27T09:26:34.860Z,81.00
2022-07-27T09:29:05.052Z,81.60
2022-07-27T09:31:32.942Z,81.50
2022-07-27T09:34:01.732Z,80.70
2022-07-27T09:36:29.570Z,80.20
2022-07-27T09:39:02.478Z,80.10
2022-07-27T09:41:43.743Z,82.00
2022-07-27T09:44:31.190Z,80.00
2022-07-27T09:46:58.698Z,81.20
2022-07-27T09:49:35.124Z,79.30
2022-07-27T09:52:03.415Z,78.60
2022-07-27T09:54:42.149Z,78.20
2022-07-27T09:57:10.064Z,78.40
2022-07-27T09:59:37.482Z,77.70
2022-07-27T10:02:05.224Z,78.60
2022-07-27T10:04:33.192Z,77.80
2022-07-27T10:07:03.452Z,76.10
2022-07-27T10:09:33.480Z,76.90
2022-07-27T10:12:01.729Z,76.30
2022-07-27T10:14:29.137Z,75.70
2022-07-27T10:16:57.693Z,75.00
2022-07-27T10:19:31.890Z,76.00
2022-07-27T10:21:59.272Z,76.60
2022-07-27T10:24:28.980Z,75.70
2022-07-27T10:26:56.502Z,74.60
2022-07-27T10:29:24.772Z,72.90
2022-07-27T10:31:54.865Z,72.30
2022-07-27T10:34:38.888Z,74.00
2022-07-27T10:37:10.893Z,73.30
2022-07-27T10:39:40.153Z,72.10
2022-07-27T10:42:22.614Z,71.40
2022-07-27T10:45:04.733Z,71.40
2022-07-27T10:47:42.307Z,72.10
2022-07-27T10:50:15.480Z,72.30
2022-07-27T10:52:42.870Z,70.00
2022-07-27T10:55:28.785Z,71.10
2022-07-27T10:57:58.221Z,71.70
2022-07-27T11:00:46.141Z,72.10
2022-07-27T11:03:26.137Z,71.60
2022-07-27T11:06:30.574Z,70.80
2022-07-27T11:09:27.243Z,71.50
2022-07-27T11:11:40.034Z,71.10
2022-07-27T11:14:07.351Z,69.80
2022-07-27T11:16:54.691Z,71.20
2022-07-27T11:19:24.192Z,70.70
2022-07-27T11:21:54.499Z,71.20
2022-07-27T11:24:23.515Z,69.00
2022-07-27T11:26:52.081Z,69.10
2022-07-27T11:29:21.145Z,68.90
2022-07-27T11:31:56.053Z,70.90
2022-07-27T11:34:27.742Z,70.80
2022-07-27T11:36:56.869Z,71.10
2022-07-27T11:42:18.677Z,71.10
2022-07-27T11:44:48.771Z,71.80
2022-07-27T11:47:17.066Z,72.20
2022-07-27T11:49:44.490Z,72.50
2022-07-27T11:52:12.554Z,73.10
2022-07-27T11:54:40.865Z,71.70
2022-07-27T11:57:09.516Z,72.60
2022-07-27T11:59:38.251Z,73.30
2022-07-27T12:02:14.078Z,74.00
2022-07-27T12:04:45.164Z,74.70
2022-07-27T12:07:15.557Z,75.20
2022-07-27T12:09:44.652Z,75.70
2022-07-27T12:12:13.879Z,76.20
2022-07-27T12:14:46.293Z,76.50
2022-07-27T12:17:15.724Z,76.80
2022-07-27T12:19:49.668Z,76.70
2022-07-27T12:22:23.260Z,76.90
2022-07-27T12:24:51.298Z,77.40
2022-07-27T12:27:18.857Z,77.50
2022-07-27T12:30:03.714Z,78.00
2022-07-27T12:32:32.173Z,78.30
2022-07-27T12:34:59.714Z,78.10
2022-07-27T12:37:30.587Z,78.50
2022-07-27T12:39:58.253Z,78.60
2022-07-27T12:42:36.405Z,78.70
2022-07-27T12:45:15.087Z,79.10
2022-07-27T12:47:42.550Z,79.80
2022-07-27T12:50:29.049Z,80.10
2022-07-27T12:52:56.762Z,80.90
2022-07-27T12:55:24.944Z,81.80
2022-07-27T12:57:56.783Z,83.40
2022-07-27T13:00:33.568Z,84.60
2022-07-27T13:03:03.418Z,85.00
2022-07-27T13:05:32.125Z,86.20
2022-07-27T13:08:00.949Z,88.00
2022-07-27T13:10:28.640Z,88.50
2022-07-27T13:12:56.977Z,89.50
2022-07-27T13:15:27.677Z,89.70
2022-07-27T13:17:55.392Z,89.90
2022-07-27T13:20:28.119Z,90.20
2022-07-27T13:22:55.721Z,90.50
2022-07-27T13:25:23.340Z,90.30
2022-07-27T13:27:50.985Z,90.30
2022-07-27T13:30:18.999Z,90.20
2022-07-27T13:32:47.105Z,90.10
2022-07-27T13:35:14.939Z,90.10
2022-07-27T13:40:11.731Z,90.30
2022-07-27T13:42:39.289Z,90.30
2022-07-27T13:45:10.490Z,90.80
2022-07-27T13:47:42.669Z,90.20
2022-07-27T13:50:18.230Z,90.00
2022-07-27T13:52:49.349Z,90.10
2022-07-27T13:55:18.047Z,90.10
2022-07-27T13:57:47.063Z,90.20
2022-07-27T14:00:16.195Z,90.30
2022-07-27T14:02:45.363Z,90.20
2022-07-27T14:05:14.259Z,90.20
2022-07-27T14:07:43.632Z,90.20
2022-07-27T14:10:31.021Z,90.10
2022-07-27T14:13:07.933Z,90.00
2022-07-27T14:15:52.983Z,89.90
2022-07-27T14:18:22.333Z,89.60
2022-07-27T14:20:49.944Z,89.10
2022-07-27T14:23:17.654Z,88.50
2022-07-27T14:25:45.232Z,88.00
2022-07-27T14:28:12.724Z,87.40
2022-07-27T14:30:40.279Z,87.00
2022-07-27T14:33:07.873Z,86.50
2022-07-27T14:35:40.250Z,86.10
2022-07-27T14:38:09.544Z,84.70
2022-07-27T14:40:38.292Z,83.70
2022-07-27T14:43:06.572Z,82.30
2022-07-27T14:45:45.396Z,80.80
2022-07-27T14:48:25.314Z,79.60
2022-07-27T14:50:56.056Z,78.10
2022-07-27T14:53:26.639Z,76.60
2022-07-27T14:55:54.858Z,74.90
2022-07-27T14:58:22.455Z,73.60
2022-07-27T15:00:50.148Z,71.50
2022-07-27T15:03:19.789Z,71.00
2022-07-27T15:05:49.971Z,69.80
2022-07-27T15:08:21.413Z,68.90
2022-07-27T15:10:51.594Z,68.20
2022-07-27T15:13:19.447Z,68.10
2022-07-27T15:15:50.832Z,67.70
2022-07-27T15:18:21.077Z,66.60
2022-07-27T15:20:48.731Z,66.70
2022-07-27T15:23:16.789Z,66.40
2022-07-27T15:25:44.350Z,66.30
2022-07-27T15:28:12.869Z,64.30
2022-07-27T15:30:40.457Z,64.30
2022-07-27T15:33:08.015Z,65.50
2022-07-27T15:35:35.856Z,65.80
2022-07-27T15:38:03.654Z,65.60
2022-07-27T15:40:37.149Z,64.70
2022-07-27T15:43:07.600Z,66.40
2022-07-27T15:45:40.905Z,66.10
2022-07-27T15:48:10.313Z,66.40
2022-07-27T15:50:40.119Z,66.30
2022-07-27T15:53:08.440Z,66.20
2022-07-27T15:55:37.691Z,66.20
2022-07-27T15:58:06.461Z,66.20
2022-07-27T16:00:39.559Z,66.40
2022-07-27T16:03:13.047Z,66.50
2022-07-27T16:05:43.941Z,66.70
2022-07-27T16:08:11.748Z,66.90
2022-07-27T16:10:40.596Z,67.10
2022-07-27T16:13:10.281Z,67.30
2022-07-27T16:15:56.391Z,66.90
2022-07-27T16:18:24.230Z,67.50
2022-07-27T16:20:52.468Z,67.80
2022-07-27T16:23:24.704Z,67.90
2022-07-27T16:26:04.627Z,68.10
2022-07-27T16:28:39.075Z,68.00
2022-07-27T16:31:09.196Z,68.20
2022-07-27T16:33:37.273Z,68.20
2022-07-27T16:36:06.013Z,68.40
2022-07-27T16:38:36.808Z,69.10
2022-07-27T16:41:07.364Z,68.50
2022-07-27T16:43:38.514Z,68.20
2022-07-27T16:46:10.261Z,68.00
2022-07-27T16:48:42.158Z,68.00
2022-07-27T16:51:14.848Z,68.00
2022-07-27T16:53:45.573Z,67.80
2022-07-27T16:56:13.697Z,67.80
2022-07-27T16:58:41.202Z,67.60
2022-07-27T17:01:09.173Z,67.00
2022-07-27T17:03:37.625Z,67.90
2022-07-27T17:06:06.749Z,67.50
2022-07-27T17:08:36.410Z,67.90
2022-07-27T17:11:06.172Z,67.80
2022-07-27T17:13:35.154Z,67.80
2022-07-27T17:16:04.593Z,67.70
2022-07-27T17:18:39.418Z,67.70
2022-07-27T17:21:12.243Z,67.60
2022-07-27T17:23:42.123Z,67.70
2022-07-27T17:26:10.453Z,67.50
2022-07-27T17:28:39.991Z,67.40
2022-07-27T17:31:12.352Z,67.40
2022-07-27T17:33:41.553Z,67.20
2022-07-27T17:36:14.542Z,67.30
2022-07-27T17:38:46.794Z,67.30
2022-07-27T17:41:19.348Z,67.20
2022-07-27T17:43:52.676Z,67.60
2022-07-27T17:46:21.914Z,67.80
2022-07-27T17:48:49.736Z,68.10
2022-07-27T17:51:17.815Z,68.50
2022-07-27T17:53:47.844Z,68.90
2022-07-27T17:56:15.424Z,69.20
2022-07-27T17:58:43.266Z,69.50
2022-07-27T18:01:11.229Z,69.70
2022-07-27T18:03:40.121Z,70.00
2022-07-27T18:06:08.252Z,70.20
2022-07-27T18:08:36.463Z,70.30
2022-07-27T18:11:04.053Z,70.50
2022-07-27T18:13:38.775Z,70.70
2022-07-27T18:16:09.402Z,70.80
2022-07-27T18:18:37.548Z,70.80
2022-07-27T18:21:05.699Z,70.60
2022-07-27T18:23:33.445Z,70.50
2022-07-27T18:26:01.206Z,69.10
2022-07-27T18:28:28.797Z,69.80
2022-07-27T18:30:56.639Z,69.40
2022-07-27T18:33:26.145Z,69.10
2022-07-27T18:36:05.004Z,68.90
2022-07-27T18:38:32.622Z,68.40
2022-07-27T18:41:00.412Z,68.20
2022-07-27T18:43:27.910Z,68.30
2022-07-27T18:45:55.767Z,68.10
2022-07-27T18:48:23.470Z,68.10
2022-07-27T18:50:53.516Z,68.10
2022-07-27T18:53:21.056Z,68.10
2022-07-27T18:55:52.726Z,68.30
2022-07-27T18:58:23.503Z,68.50
2022-07-27T19:00:51.041Z,68.90
2022-07-27T19:03:19.934Z,69.30
2022-07-27T19:05:49.397Z,69.50
2022-07-27T19:08:19.812Z,69.90
2022-07-27T19:10:47.478Z,70.20
2022-07-27T19:13:15.313Z,70.40
2022-07-27T19:15:43.316Z,70.60
2022-07-27T19:18:10.979Z,70.80
2022-07-27T19:20:38.576Z,70.90
2022-07-27T19:23:07.740Z,71.10
2022-07-27T19:25:35.409Z,71.10
2022-07-27T19:28:04.305Z,71.10
2022-07-27T19:30:32.053Z,71.30
2022-07-27T19:33:00.006Z,71.40
2022-07-27T19:35:27.660Z,71.60
2022-07-27T19:37:55.351Z,71.70
2022-07-27T19:43:10.879Z,72.10
2022-07-27T19:45:38.545Z,72.20
2022-07-27T19:48:06.693Z,72.30
2022-07-27T19:50:34.554Z,72.50
2022-07-27T19:53:02.646Z,73.00
2022-07-27T19:55:30.111Z,72.80
2022-07-27T19:58:00.193Z,73.40
2022-07-27T20:00:30.799Z,73.20
2022-07-27T20:02:58.389Z,73.40
2022-07-27T20:05:26.066Z,73.60
2022-07-27T20:07:53.656Z,73.60
2022-07-27T20:10:21.854Z,73.40
2022-07-27T20:12:49.289Z,73.20
2022-07-27T20:15:16.834Z,73.00
2022-07-27T20:17:44.491Z,73.10
2022-07-27T20:20:12.353Z,73.10
2022-07-27T20:22:40.985Z,73.20
2022-07-27T20:25:10.643Z,73.40
2022-07-27T20:27:38.567Z,73.70
2022-07-27T20:30:07.211Z,73.90
2022-07-27T20:32:35.323Z,74.20
2022-07-27T20:35:03.688Z,74.60
2022-07-27T20:37:31.311Z,75.00
2022-07-27T20:39:58.851Z,75.30
2022-07-27T20:42:26.892Z,75.60
2022-07-27T20:44:54.567Z,76.00
2022-07-27T20:47:22.216Z,76.30
2022-07-27T20:49:49.765Z,76.60
2022-07-27T20:52:17.616Z,76.90
2022-07-27T20:54:45.124Z,77.20
2022-07-27T20:57:12.663Z,77.60
2022-07-27T20:59:40.180Z,78.00
2022-07-27T21:02:08.292Z,78.50
2022-07-27T21:04:35.820Z,79.00
2022-07-27T21:07:03.375Z,80.20
2022-07-27T21:09:31.622Z,79.30
2022-07-27T21:11:59.326Z,79.90
2022-07-27T21:14:26.903Z,80.40
2022-07-27T21:16:54.579Z,80.80
2022-07-27T21:19:22.717Z,81.30
2022-07-27T21:21:50.384Z,81.70
2022-07-27T21:24:19.988Z,81.90
2022-07-27T21:26:49.988Z,82.20
2022-07-27T21:29:19.200Z,82.50
2022-07-27T21:31:48.352Z,82.80
2022-07-27T21:34:18.992Z,83.00
2022-07-27T21:36:47.168Z,83.30
2022-07-27T21:39:14.780Z,83.50
2022-07-27T21:41:42.432Z,84.60
2022-07-27T21:44:10.275Z,83.60
2022-07-27T21:46:37.922Z,84.00
2022-07-27T21:49:05.555Z,85.50
2022-07-27T21:51:33.297Z,84.20
2022-07-27T21:54:00.990Z,84.50
2022-07-27T21:56:28.895Z,84.60
2022-07-27T21:58:56.621Z,84.90
2022-07-27T22:01:24.227Z,84.90
2022-07-27T22:03:51.928Z,85.20
2022-07-27T22:06:19.555Z,85.30
2022-07-27T22:08:47.260Z,85.40
2022-07-27T22:11:14.865Z,85.60
2022-07-27T22:13:42.357Z,85.80
2022-07-27T22:16:12.470Z,86.00
2022-07-27T22:18:40.143Z,86.10
2022-07-27T22:21:08.740Z,86.40
2022-07-27T22:23:36.250Z,86.70
2022-07-27T22:26:03.894Z,86.90
2022-07-27T22:28:31.461Z,87.40
2022-07-27T22:31:20.463Z,87.60
2022-07-27T22:33:46.587Z,88.20
2022-07-27T22:36:14.229Z,87.80
2022-07-27T22:38:41.772Z,88.00
2022-07-27T22:41:09.314Z,88.20
2022-07-27T22:43:37.022Z,88.50
2022-07-27T22:46:05.635Z,88.70
2022-07-27T22:48:33.391Z,88.80
2022-07-27T22:51:00.996Z,89.10
2022-07-27T22:53:28.625Z,89.30
2022-07-27T22:55:56.263Z,89.40
2022-07-27T22:58:23.766Z,89.50
2022-07-27T23:00:54.675Z,89.80
2022-07-27T23:03:26.630Z,89.90
2022-07-27T23:05:54.649Z,90.10
2022-07-27T23:08:22.170Z,90.10
2022-07-27T23:10:49.763Z,90.20
2022-07-27T23:13:22.925Z,90.20
2022-07-27T23:15:50.725Z,90.20
2022-07-27T23:18:18.470Z,90.20
2022-07-27T23:20:46.162Z,90.20
2022-07-27T23:23:16.769Z,90.20
2022-07-27T23:25:49.094Z,90.20
2022-07-27T23:28:17.447Z,90.20
2022-07-27T23:30:45.037Z,90.30
2022-07-27T23:33:12.632Z,90.30
2022-07-27T23:35:40.236Z,90.30
2022-07-27T23:38:07.762Z,90.40
2022-07-27T23:40:35.625Z,90.40
2022-07-27T23:43:03.188Z,90.40
2022-07-27T23:45:30.760Z,90.40
2022-07-27T23:47:58.343Z,90.50
2022-07-27T23:50:26.394Z,90.50
2022-07-27T23:52:54.013Z,90.60
2022-07-27T23:55:21.916Z,90.70
2022-07-27T23:57:49.514Z,90.70
